Terminal Aerodrome Forecast
Issued by NWS Lubbock, TX

Home | Current Version | Previous Version | Text Only | Print | Product List | Glossary On
Versions: 1 2 3 4 5 6 7 8 9 10 11 12 13 14 15 16 17 18 19 20 21 22 23 24
000
FTUS44 KLUB 022333
TAFLBB
TAF
KLBB 022333Z 0300/0324 18008KT 3SM BR BKN004 OVC010
     FM030200 19011KT 5SM BR SCT015 BKN100
     FM030500 19011KT 4SM BR SCT010 BKN100
     FM031300 23012KT P6SM BKN100=

USA.gov is the U.S. government's official web portal to all federal, state and local government web resources and services.